Time;durP1;ratioP1;P1;durP2;ratioP2;P2;SDS_P1;SDS_P2;PMS_P1;PMS_P2;Temp;Humidity;BMP_temperature;BMP_pressure;BME280_temperature;BME280_humidity;BME280_pressure;Samples;Min_cycle;Max_cycle;Signal;HPM_P1;HPM_P2
2021/03/29 00:02:06;;;;;;;6.63;2.05;;;;;;;10.08;63.91;101892.56;5041217;28;20515;-73
2021/03/29 00:04:32;;;;;;;7.88;2.20;;;;;;;9.96;64.19;101900.94;5042988;28;20045;-71
2021/03/29 00:07:00;;;;;;;10.18;2.78;;;;;;;9.98;64.15;101892.97;5040007;28;20148;-72
2021/03/29 00:09:28;;;;;;;10.27;2.30;;;;;;;9.95;64.49;101896.59;5026350;28;20040;-72
2021/03/29 00:11:55;;;;;;;8.00;2.33;;;;;;;9.93;64.30;101895.75;5027659;28;20483;-73
2021/03/29 00:14:23;;;;;;;8.43;2.30;;;;;;;10.05;63.88;101891.84;5004320;28;20044;-73
2021/03/29 00:16:51;;;;;;;6.03;1.83;;;;;;;9.83;64.61;101897.88;5036073;28;20048;-73
2021/03/29 00:19:18;;;;;;;6.43;2.63;;;;;;;9.94;63.92;101894.84;5030683;28;20567;-71
2021/03/29 00:21:45;;;;;;;6.05;2.25;;;;;;;10.03;64.06;101896.28;5048639;28;20065;-73
2021/03/29 00:24:12;;;;;;;7.45;2.25;;;;;;;10.03;64.08;101881.34;5046368;28;20061;-73
2021/03/29 00:26:39;;;;;;;10.27;2.10;;;;;;;10.12;63.84;101885.44;5049692;28;20663;-73
2021/03/29 00:29:06;;;;;;;10.73;2.75;;;;;;;10.08;63.59;101878.56;5008671;28;20049;-73
2021/03/29 00:31:33;;;;;;;8.55;2.60;;;;;;;9.95;64.03;101886.06;5033947;28;20053;-74
2021/03/29 00:34:01;;;;;;;10.70;2.15;;;;;;;9.93;64.42;101882.63;5014257;28;20057;-72
2021/03/29 00:36:28;;;;;;;7.13;1.98;;;;;;;9.89;64.87;101884.50;5013869;28;20053;-73
2021/03/29 00:38:55;;;;;;;9.55;2.47;;;;;;;10.02;64.52;101891.94;5012385;28;20057;-73
2021/03/29 00:41:23;;;;;;;7.65;2.63;;;;;;;9.98;64.22;101888.56;5035559;28;20072;-73
2021/03/29 00:43:51;;;;;;;4.60;2.08;;;;;;;10.01;64.70;101891.09;5012119;28;20049;-73
2021/03/29 00:46:19;;;;;;;6.90;2.17;;;;;;;9.99;64.39;101889.41;5022435;28;20051;-72
2021/03/29 00:48:49;;;;;;;5.22;2.00;;;;;;;10.05;63.95;101889.22;5000488;28;20156;-73
2021/03/29 00:51:17;;;;;;;11.45;2.63;;;;;;;9.99;64.53;101892.91;5020714;28;20052;-73
2021/03/29 00:53:48;;;;;;;7.57;2.03;;;;;;;9.95;64.76;101893.97;5047433;28;20053;-73
2021/03/29 00:56:15;;;;;;;5.95;2.08;;;;;;;9.95;64.46;101893.97;5047441;28;20042;-72
2021/03/29 00:58:43;;;;;;;8.68;2.35;;;;;;;9.90;65.23;101888.84;5029664;28;20049;-71
2021/03/29 01:01:17;;;;;;;6.85;2.20;;;;;;;10.02;64.50;101899.84;5027093;28;20552;-72
2021/03/29 01:03:47;;;;;;;9.95;2.13;;;;;;;10.08;64.21;101902.25;5030631;28;20053;-72
2021/03/29 01:06:16;;;;;;;7.35;2.80;;;;;;;9.99;64.11;101894.69;5023265;28;20049;-73
2021/03/29 01:08:49;;;;;;;8.35;2.22;;;;;;;10.15;64.05;101896.72;5027975;28;20136;-72
2021/03/29 01:11:25;;;;;;;12.40;2.10;;;;;;;10.27;63.27;101905.97;5021929;28;20067;-74
2021/03/29 01:14:04;;;;;;;12.45;3.08;;;;;;;10.13;64.21;101895.91;5018555;28;20099;-70
2021/03/29 01:16:40;;;;;;;7.80;2.40;;;;;;;10.10;63.94;101890.75;5047761;28;20143;-73
2021/03/29 01:19:13;;;;;;;9.32;2.30;;;;;;;9.90;63.68;101896.72;5017428;28;20057;-73
2021/03/29 01:21:42;;;;;;;11.05;3.10;;;;;;;9.93;64.44;101889.66;5027142;28;20061;-72
2021/03/29 01:24:38;;;;;;;8.60;2.10;;;;;;;9.98;64.46;101885.94;5044097;28;20156;-73
2021/03/29 01:27:05;;;;;;;6.43;2.20;;;;;;;9.99;64.29;101885.00;5003032;28;20055;-74
2021/03/29 01:29:32;;;;;;;4.93;1.92;;;;;;;9.93;64.41;101881.75;5034579;28;20068;-74
2021/03/29 01:32:04;;;;;;;9.60;2.60;;;;;;;9.78;65.21;101886.66;5032160;28;20053;-74
2021/03/29 01:34:34;;;;;;;7.25;2.28;;;;;;;9.85;64.52;101880.25;5021643;28;20140;-74
2021/03/29 01:37:01;;;;;;;10.43;2.63;;;;;;;9.87;64.74;101880.22;5043105;28;20061;-74
2021/03/29 01:39:29;;;;;;;11.63;3.05;;;;;;;9.80;64.72;101882.19;5022835;28;20063;-76
2021/03/29 01:41:56;;;;;;;10.45;1.88;;;;;;;9.74;64.98;101884.19;5022346;28;20063;-74
2021/03/29 01:44:23;;;;;;;5.45;1.90;;;;;;;9.77;65.01;101882.31;5024776;28;20052;-73
2021/03/29 01:46:50;;;;;;;13.32;2.42;;;;;;;9.77;64.70;101884.06;5033060;28;20045;-72
2021/03/29 01:49:17;;;;;;;5.68;2.30;;;;;;;9.82;65.04;101885.66;5014546;28;20079;-74
2021/03/29 01:51:44;;;;;;;7.20;2.20;;;;;;;9.90;64.98;101886.19;5017409;28;20045;-73
2021/03/29 01:54:12;;;;;;;7.15;2.22;;;;;;;9.92;64.66;101882.69;5007938;28;20068;-74
2021/03/29 01:56:38;;;;;;;5.95;2.15;;;;;;;10.04;64.07;101893.63;5027344;28;20059;-72
2021/03/29 01:59:05;;;;;;;9.95;3.03;;;;;;;9.91;64.70;101892.34;5036781;28;20689;-71
2021/03/29 02:01:32;;;;;;;7.80;2.20;;;;;;;9.88;64.70;101895.06;5024897;28;20965;-73
2021/03/29 02:03:59;;;;;;;9.18;2.50;;;;;;;9.76;65.77;101888.47;5003851;28;20063;-72
2021/03/29 02:06:26;;;;;;;8.68;2.25;;;;;;;9.86;65.37;101882.00;5037041;28;21518;-72
2021/03/29 02:08:55;;;;;;;7.22;2.15;;;;;;;9.91;65.32;101889.72;5014975;28;20508;-72
2021/03/29 02:11:22;;;;;;;7.25;2.20;;;;;;;9.84;65.28;101890.84;5029693;28;20061;-72
2021/03/29 02:13:50;;;;;;;6.97;2.33;;;;;;;9.83;65.41;101886.50;5022327;28;20050;-71
2021/03/29 02:16:17;;;;;;;7.15;2.00;;;;;;;9.86;65.43;101875.84;5027991;28;20057;-73
2021/03/29 02:18:47;;;;;;;10.00;2.53;;;;;;;9.88;65.12;101872.25;5025417;28;20055;-71
2021/03/29 02:21:17;;;;;;;10.40;2.20;;;;;;;9.87;65.10;101872.31;5025296;28;20045;-72
2021/03/29 02:23:49;;;;;;;9.15;2.05;;;;;;;9.76;65.47;101879.72;5020562;28;20076;-71
2021/03/29 02:26:18;;;;;;;8.07;2.58;;;;;;;9.68;66.09;101874.75;5014861;28;20515;-73
2021/03/29 02:28:46;;;;;;;8.90;2.83;;;;;;;9.60;66.11;101872.38;5018539;28;20425;-71
2021/03/29 02:31:13;;;;;;;7.90;2.97;;;;;;;9.49;66.55;101871.03;5022940;28;20041;-73
2021/03/29 02:33:41;;;;;;;9.73;2.30;;;;;;;9.36;66.97;101868.81;5016061;28;20563;-73
2021/03/29 02:36:08;;;;;;;8.82;2.28;;;;;;;9.23;67.30;101861.41;5021724;28;20061;-72
2021/03/29 02:38:35;;;;;;;14.55;3.42;;;;;;;9.11;67.61;101868.78;5040629;28;20060;-72
2021/03/29 02:41:03;;;;;;;6.35;2.28;;;;;;;9.02;68.44;101873.50;5028734;28;20657;-72
2021/03/29 02:43:31;;;;;;;10.13;2.90;;;;;;;8.94;68.18;101868.47;5012176;28;20045;-73
2021/03/29 02:46:06;;;;;;;13.43;2.45;;;;;;;8.93;68.46;101869.41;5027880;28;20563;-72
2021/03/29 02:48:35;;;;;;;11.10;2.93;;;;;;;8.96;68.62;101873.66;5039434;28;20055;-74
2021/03/29 02:51:08;;;;;;;8.40;2.22;;;;;;;9.00;69.32;101868.28;5037917;28;20055;-75
2021/03/29 02:53:36;;;;;;;13.38;2.55;;;;;;;9.28;67.89;101870.88;5032682;28;20543;-75
2021/03/29 02:56:09;;;;;;;11.18;2.70;;;;;;;9.30;67.76;101868.19;5007420;28;20049;-75
2021/03/29 02:58:38;;;;;;;11.27;2.28;;;;;;;9.32;67.80;101874.22;5026106;28;20049;-74
2021/03/29 03:01:08;;;;;;;8.55;2.50;;;;;;;9.30;67.80;101873.44;5018736;28;20068;-75
2021/03/29 03:03:37;;;;;;;8.43;2.80;;;;;;;9.20;68.14;101878.13;5016553;28;20045;-74
2021/03/29 03:06:04;;;;;;;10.57;2.75;;;;;;;9.13;68.47;101880.09;5015991;28;20116;-74
2021/03/29 03:08:34;;;;;;;8.55;3.10;;;;;;;9.13;68.69;101873.97;5046175;28;20482;-73
2021/03/29 03:11:01;;;;;;;9.25;2.38;;;;;;;9.24;67.71;101873.66;5018881;28;20041;-74
2021/03/29 03:13:28;;;;;;;8.20;2.90;;;;;;;9.19;68.27;101883.47;5014723;28;20400;-77
2021/03/29 03:15:54;;;;;;;12.02;3.03;;;;;;;9.05;69.61;101882.13;5039009;28;20140;-75
2021/03/29 03:18:21;;;;;;;7.75;2.60;;;;;;;9.09;69.47;101881.09;5040574;28;20537;-73
2021/03/29 03:20:48;;;;;;;13.00;2.33;;;;;;;9.16;68.40;101879.16;5049770;28;20080;-75
2021/03/29 03:23:17;;;;;;;11.82;2.88;;;;;;;9.10;68.42;101882.84;5041134;28;20051;-72
2021/03/29 03:25:47;;;;;;;10.77;3.97;;;;;;;9.16;68.87;101880.91;5023426;28;20503;-72
2021/03/29 03:28:15;;;;;;;8.15;2.17;;;;;;;9.33;67.85;101871.56;5041278;28;20053;-74
2021/03/29 03:30:47;;;;;;;7.75;2.20;;;;;;;9.40;67.70;101872.19;5008264;28;20040;-72
2021/03/29 03:33:16;;;;;;;9.48;2.42;;;;;;;9.34;68.46;101880.31;5025915;28;20059;-73
2021/03/29 03:35:44;;;;;;;10.20;3.05;;;;;;;9.32;68.51;101885.63;5042019;28;20073;-71
2021/03/29 03:38:14;;;;;;;14.27;2.67;;;;;;;9.36;68.35;101883.72;5027887;28;20053;-71
2021/03/29 03:40:42;;;;;;;12.52;2.90;;;;;;;9.37;68.36;101881.06;5031502;28;20144;-73
2021/03/29 03:43:11;;;;;;;12.90;2.95;;;;;;;9.43;67.03;101885.25;5024782;28;20053;-72
2021/03/29 03:45:42;;;;;;;7.65;2.15;;;;;;;9.46;66.80;101879.91;5012240;28;20448;-73
2021/03/29 03:48:09;;;;;;;9.07;2.30;;;;;;;9.37;67.88;101885.47;5005339;28;20049;-73
2021/03/29 03:50:37;;;;;;;9.82;2.90;;;;;;;9.41;67.42;101883.56;5025791;28;20046;-73
2021/03/29 03:53:05;;;;;;;17.73;2.80;;;;;;;9.40;68.24;101890.59;5001828;28;20104;-73
2021/03/29 03:55:32;;;;;;;6.22;2.38;;;;;;;9.44;67.65;101883.47;5019570;28;20088;-73
2021/03/29 03:58:00;;;;;;;7.55;2.60;;;;;;;9.48;66.95;101882.47;5027962;28;20411;-73
2021/03/29 04:00:27;;;;;;;11.85;2.72;;;;;;;9.37;67.98;101886.31;5038718;28;20044;-73
2021/03/29 04:02:54;;;;;;;7.95;2.70;;;;;;;9.44;67.69;101886.97;5045240;28;20056;-71
2021/03/29 04:05:21;;;;;;;8.50;2.55;;;;;;;9.50;67.67;101878.88;5022192;28;20146;-73
2021/03/29 04:08:09;;;;;;;7.07;2.30;;;;;;;9.50;67.31;101881.50;5025209;28;20041;-71
2021/03/29 04:10:57;;;;;;;8.80;2.33;;;;;;;9.56;67.17;101881.28;5009715;28;20312;-71
2021/03/29 04:13:27;;;;;;;9.77;2.70;;;;;;;9.48;67.63;101877.22;5037045;28;20052;-73
2021/03/29 04:15:55;;;;;;;11.50;2.63;;;;;;;9.36;67.85;101874.06;5019170;28;20184;-72
2021/03/29 04:18:22;;;;;;;8.63;2.05;;;;;;;9.55;66.53;101874.31;5047875;28;20075;-72
2021/03/29 04:20:50;;;;;;;7.65;2.40;;;;;;;9.28;67.30;101876.13;5028040;28;20127;-73
2021/03/29 04:23:17;;;;;;;5.53;2.33;;;;;;;9.24;68.05;101868.41;5016533;28;20129;-72
2021/03/29 04:25:45;;;;;;;6.82;2.55;;;;;;;9.13;68.90;101874.84;5026756;28;20415;-73
2021/03/29 04:28:12;;;;;;;15.45;3.38;;;;;;;9.08;68.81;101871.50;5046786;28;20553;-73
2021/03/29 04:30:39;;;;;;;16.02;2.92;;;;;;;9.05;68.67;101870.75;5043053;28;20498;-72
2021/03/29 04:33:06;;;;;;;9.40;2.60;;;;;;;9.08;69.53;101873.28;5046697;28;20169;-73
2021/03/29 04:35:33;;;;;;;8.93;2.78;;;;;;;9.05;68.59;101870.75;5050389;28;20041;-73
2021/03/29 04:37:59;;;;;;;8.07;2.75;;;;;;;9.23;68.08;101879.78;5023586;28;20061;-73
2021/03/29 04:40:27;;;;;;;9.85;2.65;;;;;;;9.16;68.94;101873.03;5025438;28;20056;-73
2021/03/29 04:42:54;;;;;;;9.20;2.53;;;;;;;9.25;67.73;101867.47;5021924;28;20053;-73
2021/03/29 04:45:21;;;;;;;8.18;2.38;;;;;;;9.42;67.88;101866.91;5029289;28;20357;-73
2021/03/29 04:47:48;;;;;;;13.70;2.92;;;;;;;9.33;67.39;101876.81;5029689;28;20057;-73
2021/03/29 04:50:20;;;;;;;9.32;2.58;;;;;;;9.42;67.33;101870.41;5025422;28;20057;-71
2021/03/29 04:52:46;;;;;;;13.55;2.70;;;;;;;9.38;67.94;101880.16;5044941;28;20048;-73
2021/03/29 04:55:15;;;;;;;12.52;3.15;;;;;;;9.36;68.09;101873.22;5027214;28;20531;-74
2021/03/29 04:57:42;;;;;;;13.95;2.83;;;;;;;9.30;67.49;101873.44;5018156;28;20048;-73
2021/03/29 05:00:10;;;;;;;11.95;2.80;;;;;;;9.55;66.56;101874.31;5041008;28;20064;-73
2021/03/29 05:02:37;;;;;;;9.05;2.65;;;;;;;9.64;66.34;101875.78;5010186;28;20042;-73
2021/03/29 05:05:04;;;;;;;14.32;3.75;;;;;;;9.61;66.36;101881.13;5000015;28;20136;-71
2021/03/29 05:07:31;;;;;;;11.18;2.90;;;;;;;9.57;66.66;101877.75;5052039;28;20532;-72
2021/03/29 05:09:58;;;;;;;11.35;2.88;;;;;;;9.64;65.92;101887.16;5038983;28;20067;-72
2021/03/29 05:12:25;;;;;;;7.10;2.50;;;;;;;9.71;65.37;101885.16;5003895;28;20569;-73
2021/03/29 05:14:52;;;;;;;7.82;2.85;;;;;;;9.73;65.64;101895.63;5044069;28;20051;-72
2021/03/29 05:17:20;;;;;;;12.27;2.65;;;;;;;9.75;65.61;101893.78;5045691;28;20631;-72
2021/03/29 05:19:47;;;;;;;6.35;2.35;;;;;;;9.75;66.12;101889.38;5022509;28;20567;-71
2021/03/29 05:22:14;;;;;;;11.95;3.38;;;;;;;9.68;65.98;101887.03;5010474;28;20064;-73
2021/03/29 05:24:41;;;;;;;9.77;3.22;;;;;;;9.76;65.79;101890.25;5019164;28;20075;-71
2021/03/29 05:27:09;;;;;;;9.13;2.72;;;;;;;9.88;65.13;101900.34;5019998;28;20067;-72
2021/03/29 05:29:42;;;;;;;11.63;2.95;;;;;;;9.96;64.53;101897.44;5050075;28;20144;-71
2021/03/29 05:32:20;;;;;;;10.60;2.47;;;;;;;10.08;64.51;101903.09;5035255;28;20056;-72
2021/03/29 05:34:48;;;;;;;12.00;2.72;;;;;;;10.08;63.96;101899.59;5033497;28;20124;-74
2021/03/29 05:37:16;;;;;;;10.32;3.03;;;;;;;10.14;63.97;101905.53;5025641;28;20053;-73
2021/03/29 05:39:49;;;;;;;12.32;2.97;;;;;;;10.11;64.40;101895.09;5039172;28;20589;-73
2021/03/29 05:42:17;;;;;;;9.30;2.47;;;;;;;10.24;63.77;101894.66;5045706;28;20065;-73
2021/03/29 05:44:44;;;;;;;17.20;3.00;;;;;;;10.27;63.80;101902.47;5042447;28;20049;-72
2021/03/29 05:47:11;;;;;;;9.45;2.60;;;;;;;10.39;63.20;101902.00;5017991;28;20062;-73
2021/03/29 05:49:38;;;;;;;12.55;3.13;;;;;;;10.49;63.14;101908.66;5027258;28;20060;-72
2021/03/29 05:52:05;;;;;;;14.98;3.85;;;;;;;10.38;63.38;101908.19;5028878;28;20050;-73
2021/03/29 05:54:32;;;;;;;10.02;2.63;;;;;;;10.42;63.82;101907.16;5021906;28;20040;-72
2021/03/29 05:56:59;;;;;;;11.10;2.90;;;;;;;10.45;63.48;101912.31;5042456;28;20059;-72
2021/03/29 05:59:41;;;;;;;12.38;2.95;;;;;;;10.47;63.37;101914.88;5014891;28;20485;-72
2021/03/29 06:02:09;;;;;;;10.52;2.80;;;;;;;10.49;63.86;101926.19;5014279;28;20074;-71
2021/03/29 06:04:46;;;;;;;8.75;3.78;;;;;;;10.52;63.25;101921.69;5044789;28;20148;-74
2021/03/29 06:07:19;;;;;;;12.68;3.13;;;;;;;10.50;63.34;101923.53;5045934;28;20060;-72
2021/03/29 06:09:48;;;;;;;13.80;3.08;;;;;;;10.55;63.96;101921.56;5011671;28;20137;-72
2021/03/29 06:12:16;;;;;;;9.07;3.28;;;;;;;10.59;63.83;101928.44;5024524;28;20549;-72
2021/03/29 06:14:44;;;;;;;11.50;3.15;;;;;;;10.58;63.48;101921.47;5032328;28;20044;-73
2021/03/29 06:17:13;;;;;;;14.30;3.08;;;;;;;10.64;63.48;101915.94;5018628;28;20410;-73
2021/03/29 06:20:12;;;;;;;9.35;3.13;;;;;;;10.71;64.27;101919.19;5027629;28;20086;-74
2021/03/29 06:22:42;;;;;;;8.48;2.95;;;;;;;10.68;64.37;101910.56;5001417;28;20140;-72
2021/03/29 06:25:16;;;;;;;9.55;2.95;;;;;;;10.77;64.03;101921.59;5005720;28;20061;-72
2021/03/29 06:27:56;;;;;;;14.50;3.67;;;;;;;10.85;63.25;101918.66;5040554;28;20084;-72
2021/03/29 06:30:23;;;;;;;15.50;3.72;;;;;;;10.90;62.93;101922.84;5043774;28;20056;-73
2021/03/29 06:33:03;;;;;;;19.75;4.05;;;;;;;11.06;62.35;101941.53;5017474;28;20072;-71
2021/03/29 06:35:37;;;;;;;13.18;3.42;;;;;;;11.16;62.36;101931.47;5036016;28;20472;-71
2021/03/29 06:38:05;;;;;;;13.02;3.40;;;;;;;11.47;60.92;101928.44;5012498;28;20052;-72
2021/03/29 06:40:31;;;;;;;12.57;3.85;;;;;;;11.56;59.81;101928.03;5034777;28;20048;-74
2021/03/29 06:42:58;;;;;;;16.15;4.20;;;;;;;11.52;59.64;101929.09;5006020;28;20045;-72
2021/03/29 06:45:27;;;;;;;18.70;3.72;;;;;;;11.61;59.93;101926.06;5014902;28;20429;-71
2021/03/29 06:47:54;;;;;;;13.18;3.83;;;;;;;12.07;59.26;101928.53;4991385;28;20049;-73
2021/03/29 06:50:26;;;;;;;13.65;3.20;;;;;;;11.98;58.34;101929.81;5021978;28;20386;-72
2021/03/29 06:52:52;;;;;;;10.30;3.75;;;;;;;11.83;58.97;101931.31;5038726;28;20048;-73
2021/03/29 06:55:22;;;;;;;12.02;3.28;;;;;;;12.09;58.34;101919.63;5015891;28;20774;-70
2021/03/29 06:58:04;;;;;;;10.05;3.05;;;;;;;12.60;55.63;101910.22;5045492;28;20053;-73
2021/03/29 07:00:36;;;;;;;7.78;2.90;;;;;;;12.58;55.88;101921.81;4986281;28;20069;-71
2021/03/29 07:03:04;;;;;;;16.20;3.85;;;;;;;12.99;55.41;101919.00;5040244;28;20072;-71
2021/03/29 07:05:31;;;;;;;11.32;3.47;;;;;;;12.74;55.03;101914.84;5024306;28;20122;-72
2021/03/29 07:08:03;;;;;;;17.40;5.45;;;;;;;12.38;55.43;101909.50;5041021;28;20063;-70
2021/03/29 07:10:30;;;;;;;12.13;2.97;;;;;;;12.63;55.33;101903.94;5026878;28;20067;-71
2021/03/29 07:12:57;;;;;;;14.40;3.15;;;;;;;12.73;55.05;101913.16;5020708;28;20132;-70
2021/03/29 07:15:24;;;;;;;8.05;2.67;;;;;;;12.48;55.45;101908.19;5006948;28;20041;-71
2021/03/29 07:17:51;;;;;;;17.90;3.50;;;;;;;12.55;55.47;101919.31;5047209;28;20096;-70
2021/03/29 07:20:21;;;;;;;13.63;3.78;;;;;;;12.41;55.01;101912.03;5027134;28;20041;-70
2021/03/29 07:22:49;;;;;;;10.88;3.80;;;;;;;12.70;54.95;101910.69;5006331;28;20041;-71
2021/03/29 07:25:16;;;;;;;11.90;3.38;;;;;;;12.80;54.99;101908.44;5039977;28;20136;-71
2021/03/29 07:27:52;;;;;;;13.40;4.22;;;;;;;12.73;55.37;101922.88;5025004;28;20049;-72
2021/03/29 07:30:51;;;;;;;9.52;3.08;;;;;;;12.73;56.01;101918.44;5014230;28;20059;-72
2021/03/29 07:33:19;;;;;;;13.90;3.63;;;;;;;12.81;55.22;101918.94;5022980;28;20056;-72
2021/03/29 07:35:52;;;;;;;10.10;3.97;;;;;;;12.81;54.53;101915.44;5005891;28;20115;-71
2021/03/29 07:38:21;;;;;;;10.48;3.30;;;;;;;12.81;54.46;101921.56;5046589;28;20685;-73
2021/03/29 07:40:53;;;;;;;14.43;3.63;;;;;;;12.64;55.26;101927.66;5018163;28;20049;-72
2021/03/29 07:43:25;;;;;;;11.20;2.70;;;;;;;12.37;56.07;101926.28;5037735;28;20447;-72
2021/03/29 07:46:03;;;;;;;14.02;3.63;;;;;;;12.24;56.23;101922.50;5034770;28;20054;-73
2021/03/29 07:48:34;;;;;;;13.45;3.33;;;;;;;12.48;55.79;101933.75;5017086;28;20049;-72
2021/03/29 07:51:04;;;;;;;10.10;4.15;;;;;;;12.92;55.28;101927.22;5038029;28;20053;-73
2021/03/29 07:53:51;;;;;;;15.35;3.60;;;;;;;13.06;53.58;101931.84;5033172;28;20107;-71
2021/03/29 07:56:29;;;;;;;14.10;3.83;;;;;;;13.44;53.37;101934.41;5032938;28;20108;-71
2021/03/29 07:58:56;;;;;;;14.35;3.63;;;;;;;13.35;53.38;101930.44;5046423;28;20320;-72
2021/03/29 08:01:23;;;;;;;18.45;3.58;;;;;;;13.48;52.68;101930.69;5044419;28;20041;-72
2021/03/29 08:03:53;;;;;;;11.35;3.85;;;;;;;13.43;53.26;101938.00;5041795;28;20084;-71
2021/03/29 08:06:36;;;;;;;13.02;3.33;;;;;;;13.73;52.30;101934.72;5045798;28;20060;-70
2021/03/29 08:09:04;;;;;;;15.05;4.18;;;;;;;13.82;51.33;101943.03;5039278;28;20143;-71
2021/03/29 08:11:50;;;;;;;12.45;2.97;;;;;;;13.97;51.92;101951.16;5025548;28;20052;-71
2021/03/29 08:14:38;;;;;;;11.20;3.08;;;;;;;14.25;51.23;101939.94;5018932;28;20141;-71
2021/03/29 08:17:45;;;;;;;11.15;3.10;;;;;;;14.35;50.11;101934.06;5025415;28;20441;-71
2021/03/29 08:20:25;;;;;;;;;;;;;;;14.95;48.84;101938.78;5025344;28;20056;-71
2021/03/29 08:23:31;;;;;;;13.57;3.13;;;;;;;15.23;48.07;101932.75;5022445;28;19924;-71
2021/03/29 08:26:12;;;;;;;14.05;3.42;;;;;;;14.94;48.58;101929.94;5030010;28;20464;-70
2021/03/29 08:29:07;;;;;;;8.38;2.67;;;;;;;14.65;48.91;101936.88;5029630;28;20047;-73
2021/03/29 08:32:12;;;;;;;10.60;3.50;;;;;;;15.51;47.47;101947.06;5035931;28;20128;-72
2021/03/29 08:34:53;;;;;;;14.85;4.22;;;;;;;15.55;46.35;101936.16;5024862;28;20051;-71
2021/03/29 08:37:28;;;;;;;15.52;3.63;;;;;;;15.98;45.55;101943.38;5038281;28;20530;-72
2021/03/29 08:39:57;;;;;;;13.30;3.80;;;;;;;16.17;44.30;101928.91;5006375;28;20057;-73
2021/03/29 08:42:28;;;;;;;16.08;3.30;;;;;;;15.31;46.49;101940.25;5022799;28;20053;-70
2021/03/29 08:44:54;;;;;;;15.13;3.13;;;;;;;15.27;47.12;101936.94;5039849;28;20050;-72
2021/03/29 08:47:23;;;;;;;13.27;3.42;;;;;;;15.30;47.39;101936.72;5040677;28;20111;-75
2021/03/29 08:49:53;;;;;;;14.93;3.35;;;;;;;15.54;46.23;101944.22;5034359;28;20140;-71
2021/03/29 08:52:20;;;;;;;13.10;2.35;;;;;;;15.58;46.23;101946.63;5046809;28;20045;-74
2021/03/29 08:54:55;;;;;;;15.63;2.95;;;;;;;15.03;47.32;101946.28;5018247;28;20540;-71
2021/03/29 08:57:24;;;;;;;17.88;3.78;;;;;;;15.45;47.07;101940.31;5024362;28;20060;-71
2021/03/29 08:59:52;;;;;;;9.20;2.80;;;;;;;15.10;47.28;101952.94;5022001;28;20128;-71
2021/03/29 09:02:19;;;;;;;9.93;2.72;;;;;;;15.22;47.47;101946.97;5029374;28;20057;-71
2021/03/29 09:04:53;;;;;;;11.10;2.75;;;;;;;15.53;47.23;101946.00;5019521;28;20048;-73
2021/03/29 09:07:21;;;;;;;11.50;2.72;;;;;;;15.36;47.53;101947.00;5044063;28;20457;-72
2021/03/29 09:09:48;;;;;;;14.25;3.38;;;;;;;15.82;46.16;101948.78;5041012;28;20052;-72
2021/03/29 09:12:25;;;;;;;13.50;2.72;;;;;;;15.31;46.57;101953.50;5029274;28;20065;-71
2021/03/29 09:14:52;;;;;;;14.18;3.13;;;;;;;15.42;46.63;101969.69;5036779;28;20052;-72
2021/03/29 09:17:26;;;;;;;8.70;2.13;;;;;;;16.23;45.11;101969.31;5044462;28;20056;-72
2021/03/29 09:19:53;;;;;;;9.13;2.33;;;;;;;16.61;44.50;101961.63;5041061;28;20056;-73
2021/03/29 09:22:34;;;;;;;16.27;2.95;;;;;;;16.50;44.35;101959.63;5031736;28;20077;-71
2021/03/29 09:25:04;;;;;;;11.68;3.10;;;;;;;16.66;44.17;101960.41;5027169;28;20058;-72
2021/03/29 09:27:37;;;;;;;9.15;2.47;;;;;;;16.41;44.38;101953.09;5034852;28;20076;-73
2021/03/29 09:30:08;;;;;;;7.10;2.40;;;;;;;16.74;43.63;101951.94;5025947;28;20058;-72
2021/03/29 09:32:35;;;;;;;9.90;2.63;;;;;;;17.15;42.79;101943.09;5032051;22;20993;-73
2021/03/29 09:38:59;;;;;;;12.63;3.07;;;;;;;17.27;42.49;101938.78;5028549;28;20475;-74
2021/03/29 09:41:29;;;;;;;9.48;2.50;;;;;;;17.50;41.74;101938.09;5036025;28;20053;-74
2021/03/29 09:43:57;;;;;;;9.85;2.88;;;;;;;17.94;40.95;101932.44;5020793;28;20214;-72
2021/03/29 09:46:29;;;;;;;11.88;2.60;;;;;;;18.14;40.37;101933.69;5029377;28;20052;-73
2021/03/29 09:49:15;;;;;;;12.57;2.95;;;;;;;18.06;40.56;101929.91;5014583;28;20116;-72
2021/03/29 09:51:45;;;;;;;9.95;2.47;;;;;;;17.69;41.40;101922.56;5025445;28;20391;-71
2021/03/29 09:54:25;;;;;;;26.27;3.03;;;;;;;17.50;42.16;101913.28;5028070;28;20053;-72
2021/03/29 09:56:52;;;;;;;11.18;2.60;;;;;;;17.70;41.15;101910.97;5024623;28;20080;-73
2021/03/29 09:59:27;;;;;;;12.57;2.20;;;;;;;17.28;41.76;101916.53;5027734;28;20075;-71
2021/03/29 10:01:53;;;;;;;10.07;2.38;;;;;;;17.64;41.21;101911.38;5027479;28;20079;-73
2021/03/29 10:04:22;;;;;;;19.13;2.50;;;;;;;18.31;40.14;101911.19;5025223;28;20136;-72
2021/03/29 10:06:56;;;;;;;10.15;2.80;;;;;;;18.22;40.38;101926.03;5033413;28;20487;-72
2021/03/29 10:09:34;;;;;;;10.20;2.92;;;;;;;18.86;39.00;101915.22;5009720;28;20057;-72
2021/03/29 10:12:03;;;;;;;9.75;2.47;;;;;;;19.26;38.33;101919.44;5012180;28;20411;-73
2021/03/29 10:14:35;;;;;;;9.32;2.70;;;;;;;19.26;37.99;101914.09;5043863;28;20052;-72
2021/03/29 10:17:18;;;;;;;7.70;2.22;;;;;;;19.36;37.73;101915.97;5010748;28;20049;-73
2021/03/29 10:19:46;;;;;;;9.43;2.28;;;;;;;19.20;37.70;101913.59;5022686;28;20518;-73
2021/03/29 10:22:14;;;;;;;8.13;2.20;;;;;;;19.75;36.98;101915.75;5031224;28;20083;-72
2021/03/29 10:25:12;;;;;;;9.75;2.50;;;;;;;18.82;37.96;101908.44;5042522;28;20049;-72
2021/03/29 10:27:46;;;;;;;11.18;2.67;;;;;;;18.48;38.46;101918.84;5045609;28;20467;-72
2021/03/29 10:30:18;;;;;;;9.80;2.85;;;;;;;18.51;38.85;101923.13;5050642;28;20523;-73
2021/03/29 10:32:46;;;;;;;9.55;3.45;;;;;;;18.53;38.09;101917.66;5052849;28;20041;-72
2021/03/29 10:35:13;;;;;;;9.30;3.00;;;;;;;18.07;39.37;101921.78;5012598;28;20047;-72
2021/03/29 10:37:40;;;;;;;17.25;2.70;;;;;;;17.85;39.75;101927.75;5025771;28;20060;-73
2021/03/29 10:40:07;;;;;;;10.07;2.15;;;;;;;17.83;39.54;101919.00;5053373;28;20068;-73
2021/03/29 10:42:36;;;;;;;20.55;3.40;;;;;;;17.26;40.57;101931.75;5014282;28;20049;-72
2021/03/29 10:45:07;;;;;;;8.90;2.28;;;;;;;17.11;41.15;101922.94;5028639;28;20067;-71
2021/03/29 10:47:35;;;;;;;6.43;1.70;;;;;;;16.42;42.62;101917.59;5030796;28;20055;-73
2021/03/29 10:50:03;;;;;;;20.42;3.17;;;;;;;16.47;43.92;101914.63;5010223;28;20052;-73
2021/03/29 10:52:30;;;;;;;10.27;2.75;;;;;;;16.09;48.47;101925.88;5029317;28;20180;-71
2021/03/29 10:59:09;;;;;;;15.93;2.50;;;;;;;15.49;50.83;101936.53;5031609;28;21106;-72
2021/03/29 11:01:36;;;;;;;10.77;2.33;;;;;;;15.15;52.99;101932.31;5043510;28;20111;-73
2021/03/29 11:04:02;;;;;;;8.00;2.67;;;;;;;15.00;52.49;101928.75;5047838;28;20141;-74
2021/03/29 11:06:29;;;;;;;8.27;1.75;;;;;;;15.53;53.06;101923.91;5030589;28;20047;-71
2021/03/29 11:08:56;;;;;;;8.10;2.65;;;;;;;15.76;51.38;101925.25;5031610;28;20053;-71
2021/03/29 11:11:22;;;;;;;9.88;2.50;;;;;;;16.04;50.15;101930.59;5048525;28;20071;-73
2021/03/29 11:13:49;;;;;;;10.27;2.50;;;;;;;15.90;49.54;101927.94;5018458;28;20079;-75
2021/03/29 11:16:17;;;;;;;18.77;2.83;;;;;;;15.99;49.25;101930.03;5052095;28;20060;-74
2021/03/29 11:18:43;;;;;;;12.25;2.38;;;;;;;16.53;48.92;101922.25;5054177;28;20158;-72
2021/03/29 11:21:11;;;;;;;10.70;2.67;;;;;;;16.38;48.78;101923.19;5050864;28;20059;-73
2021/03/29 11:23:38;;;;;;;10.52;2.38;;;;;;;16.06;49.25;101923.38;5018288;28;20033;-72
2021/03/29 11:26:05;;;;;;;11.32;2.97;;;;;;;16.59;47.53;101927.16;5052492;28;20114;-71
2021/03/29 11:28:31;;;;;;;8.30;1.80;;;;;;;16.30;48.88;101923.69;5023299;28;20062;-75
2021/03/29 11:30:58;;;;;;;25.60;3.58;;;;;;;16.29;48.76;101926.41;5030800;28;20056;-73
2021/03/29 11:33:25;;;;;;;46.15;4.53;;;;;;;16.63;47.18;101925.16;5012592;28;20067;-72
2021/03/29 11:35:52;;;;;;;17.33;2.40;;;;;;;16.66;47.01;101928.50;5045100;28;20515;-72
2021/03/29 11:38:18;;;;;;;29.08;2.97;;;;;;;16.65;47.13;101920.59;5033446;28;20081;-72
2021/03/29 11:40:46;;;;;;;9.95;2.60;;;;;;;16.28;46.82;101914.09;5029101;28;20049;-74
2021/03/29 11:43:13;;;;;;;7.25;1.83;;;;;;;16.37;45.86;101911.72;5023136;28;20066;-73
2021/03/29 11:45:39;;;;;;;17.52;2.70;;;;;;;16.34;45.94;101909.22;5047977;28;20057;-73
2021/03/29 11:48:06;;;;;;;28.00;3.13;;;;;;;16.72;44.41;101906.00;5046635;28;20059;-73